Time;durP1;ratioP1;P1;durP2;ratioP2;P2;SDS_P1;SDS_P2;PMS_P1;PMS_P2;Temp;Humidity;BMP_temperature;BMP_pressure;BME280_temperature;BME280_humidity;BME280_pressure;Samples;Min_cycle;Max_cycle;Signal;HPM_P1;HPM_P2
2023/09/23 00:02:15;;;;;;;0.83;0.60;;;12.90;99.90;;;;;;5064889;28;20483;-75
2023/09/23 00:04:42;;;;;;;0.50;0.40;;;12.90;99.90;;;;;;5064088;28;21125;-79
2023/09/23 00:07:10;;;;;;;0.67;0.67;;;12.90;99.90;;;;;;5069679;28;20452;-75
2023/09/23 00:09:37;;;;;;;0.90;0.70;;;13.00;99.90;;;;;;5071889;28;20490;-74
2023/09/23 00:12:05;;;;;;;0.73;0.67;;;13.10;99.90;;;;;;5064068;28;20455;-77
2023/09/23 00:14:32;;;;;;;0.60;0.57;;;13.10;99.90;;;;;;5064481;28;20443;-79
2023/09/23 00:16:59;;;;;;;0.60;0.47;;;13.20;99.90;;;;;;5066833;28;20447;-75
2023/09/23 00:19:26;;;;;;;1.10;0.60;;;13.10;99.90;;;;;;5068150;28;20554;-76
2023/09/23 00:21:54;;;;;;;0.60;0.50;;;13.10;99.90;;;;;;5058654;28;20867;-77
2023/09/23 00:24:23;;;;;;;0.57;0.40;;;13.10;99.90;;;;;;5064725;28;20462;-77
2023/09/23 00:26:50;;;;;;;1.00;0.83;;;13.10;99.90;;;;;;5065389;28;20454;-75
2023/09/23 00:29:18;;;;;;;1.33;0.60;;;13.00;99.90;;;;;;5062897;28;20527;-77
2023/09/23 00:31:45;;;;;;;3.27;1.03;;;13.00;99.90;;;;;;5066828;28;20472;-79
2023/09/23 00:34:12;;;;;;;2.30;0.90;;;13.00;99.90;;;;;;5066161;28;20473;-76
2023/09/23 00:36:39;;;;;;;0.90;0.60;;;12.90;99.90;;;;;;5059209;28;20449;-77
2023/09/23 00:39:06;;;;;;;1.03;0.73;;;12.90;99.90;;;;;;5065802;28;21034;-74
2023/09/23 00:41:35;;;;;;;1.43;0.83;;;12.80;99.90;;;;;;5057911;28;20484;-76
2023/09/23 00:44:02;;;;;;;2.70;0.60;;;12.90;99.90;;;;;;5066208;28;20486;-75
2023/09/23 00:46:29;;;;;;;0.70;0.60;;;13.00;99.90;;;;;;5060162;28;20460;-75
2023/09/23 00:48:56;;;;;;;0.90;0.90;;;12.90;99.90;;;;;;5060711;28;20543;-80
2023/09/23 00:51:24;;;;;;;1.03;0.90;;;12.90;99.90;;;;;;5064265;28;20564;-76
2023/09/23 00:53:51;;;;;;;1.07;0.70;;;12.80;99.90;;;;;;5061188;28;20999;-76
2023/09/23 00:56:23;;;;;;;0.90;0.70;;;12.70;99.90;;;;;;5062639;28;20440;-80
2023/09/23 00:58:52;;;;;;;1.10;0.90;;;12.50;99.90;;;;;;5053979;28;20498;-77
2023/09/23 01:01:21;;;;;;;1.80;0.97;;;12.50;99.90;;;;;;5062618;28;20464;-76
2023/09/23 01:03:48;;;;;;;0.90;0.90;;;12.60;99.90;;;;;;5049432;28;20460;-75
2023/09/23 01:06:15;;;;;;;1.03;0.93;;;12.60;99.90;;;;;;5062503;28;20456;-75
2023/09/23 01:08:45;;;;;;;1.23;1.00;;;12.60;99.90;;;;;;5060412;28;20446;-76
2023/09/23 01:11:12;;;;;;;2.07;0.90;;;12.60;99.90;;;;;;5065201;28;20464;-78
2023/09/23 01:13:42;;;;;;;1.87;1.07;;;12.60;99.90;;;;;;5058397;28;20557;-74
2023/09/23 01:16:13;;;;;;;2.23;1.20;;;12.70;99.90;;;;;;5066242;28;20468;-78
2023/09/23 01:18:40;;;;;;;2.10;0.87;;;12.70;99.90;;;;;;5063254;28;20484;-78
2023/09/23 01:21:08;;;;;;;1.70;1.40;;;12.70;99.90;;;;;;5062433;28;20470;-78
2023/09/23 01:23:38;;;;;;;1.70;1.30;;;12.70;99.90;;;;;;5061462;28;20453;-75
2023/09/23 01:26:05;;;;;;;1.80;1.70;;;12.70;99.90;;;;;;5063435;28;20460;-77
2023/09/23 01:28:33;;;;;;;2.27;2.07;;;12.70;99.90;;;;;;5065857;28;20440;-75
2023/09/23 01:31:02;;;;;;;2.17;1.97;;;12.80;99.90;;;;;;5057593;28;20539;-75
2023/09/23 01:33:29;;;;;;;1.30;0.97;;;12.90;99.90;;;;;;5062727;28;20464;-74
2023/09/23 01:36:02;;;;;;;0.90;0.80;;;12.90;99.90;;;;;;5065540;28;20546;-75
2023/09/23 01:38:29;;;;;;;1.07;0.73;;;12.80;99.90;;;;;;5071316;28;20514;-75
2023/09/23 01:40:57;;;;;;;1.30;0.93;;;12.80;99.90;;;;;;5058664;28;20463;-74
2023/09/23 01:43:25;;;;;;;0.83;0.73;;;12.80;99.90;;;;;;5068667;28;20444;-75
2023/09/23 01:45:55;;;;;;;2.10;1.37;;;12.90;99.90;;;;;;5062454;28;20512;-77
2023/09/23 01:48:22;;;;;;;0.93;0.67;;;12.80;99.90;;;;;;5066440;28;20499;-78
2023/09/23 01:50:50;;;;;;;0.80;0.80;;;12.90;99.90;;;;;;5059997;28;20488;-75
2023/09/23 01:53:19;;;;;;;1.50;1.30;;;12.90;99.90;;;;;;5067079;28;20590;-76
2023/09/23 01:55:46;;;;;;;1.10;1.00;;;13.00;99.90;;;;;;5052461;28;21145;-79
2023/09/23 01:58:15;;;;;;;1.23;1.00;;;12.90;99.90;;;;;;5059886;28;21015;-75
2023/09/23 02:00:42;;;;;;;2.37;1.00;;;12.90;99.90;;;;;;5054211;28;20451;-75
2023/09/23 02:03:10;;;;;;;1.70;1.27;;;12.90;99.90;;;;;;5060021;28;20444;-75
2023/09/23 02:05:37;;;;;;;1.37;1.07;;;13.00;99.90;;;;;;5055641;28;20467;-75
2023/09/23 02:08:04;;;;;;;2.30;1.20;;;13.00;99.90;;;;;;5050422;28;20450;-75
2023/09/23 02:10:31;;;;;;;2.10;1.17;;;13.00;99.90;;;;;;5062314;28;20517;-75
2023/09/23 02:12:59;;;;;;;2.53;1.43;;;12.90;99.90;;;;;;5052733;28;21004;-75
2023/09/23 02:15:27;;;;;;;1.20;1.07;;;12.90;99.90;;;;;;5064733;28;20535;-76
2023/09/23 02:17:54;;;;;;;1.13;1.03;;;13.00;99.90;;;;;;5057194;28;20943;-75
2023/09/23 02:20:21;;;;;;;4.70;1.70;;;13.00;99.90;;;;;;5060973;28;20451;-76
2023/09/23 02:22:50;;;;;;;1.53;1.00;;;13.00;99.90;;;;;;5063444;28;20471;-75
2023/09/23 02:25:17;;;;;;;1.10;0.90;;;12.90;99.90;;;;;;5064761;28;20504;-75
2023/09/23 02:27:46;;;;;;;1.43;0.87;;;12.90;99.90;;;;;;5054810;28;20442;-75
2023/09/23 02:30:14;;;;;;;2.30;1.13;;;12.90;99.90;;;;;;5063084;28;20466;-75
2023/09/23 02:32:44;;;;;;;0.80;0.70;;;12.90;99.90;;;;;;5063203;28;20485;-75
2023/09/23 02:35:13;;;;;;;0.87;0.63;;;12.90;99.90;;;;;;5062576;28;20542;-75
2023/09/23 02:37:41;;;;;;;1.30;0.80;;;12.80;99.90;;;;;;5061274;28;20486;-76
2023/09/23 02:40:12;;;;;;;1.13;0.90;;;12.90;99.90;;;;;;5061768;28;20596;-75
2023/09/23 02:42:43;;;;;;;0.80;0.70;;;12.90;99.90;;;;;;5063827;28;21138;-75
2023/09/23 02:45:12;;;;;;;1.50;0.60;;;12.90;99.90;;;;;;5052446;28;20442;-75
2023/09/23 02:47:39;;;;;;;0.90;0.70;;;12.90;99.90;;;;;;5055857;28;20467;-75
2023/09/23 02:50:09;;;;;;;5.80;0.70;;;12.80;99.90;;;;;;5065137;28;20601;-74
2023/09/23 02:52:38;;;;;;;0.83;0.70;;;12.80;99.90;;;;;;5065834;28;20469;-75
2023/09/23 02:55:08;;;;;;;1.57;1.30;;;12.80;99.90;;;;;;5050795;28;20491;-75
2023/09/23 02:57:36;;;;;;;1.93;1.10;;;12.80;99.90;;;;;;5058251;28;20447;-75
2023/09/23 03:00:16;;;;;;;1.83;1.20;;;12.90;99.90;;;;;;5068773;28;20512;-73
2023/09/23 03:02:45;;;;;;;2.77;1.30;;;13.00;99.90;;;;;;5073121;28;20491;-73
2023/09/23 03:05:16;;;;;;;2.80;0.93;;;12.90;99.90;;;;;;5069979;28;20514;-75
2023/09/23 03:07:43;;;;;;;1.37;1.17;;;12.90;99.90;;;;;;5062679;28;20800;-81
2023/09/23 03:10:12;;;;;;;1.10;0.70;;;12.90;99.90;;;;;;5067138;28;20454;-75
2023/09/23 03:12:43;;;;;;;1.37;0.70;;;12.90;99.90;;;;;;5064057;28;20447;-77
2023/09/23 03:15:15;;;;;;;0.80;0.70;;;12.90;99.90;;;;;;5064289;28;20448;-77
2023/09/23 03:17:50;;;;;;;7.40;1.20;;;13.00;99.90;;;;;;5062068;28;20469;-81
2023/09/23 03:20:25;;;;;;;1.20;0.87;;;13.10;99.90;;;;;;5064181;28;20585;-78
2023/09/23 03:22:53;;;;;;;2.20;0.80;;;13.10;99.90;;;;;;5057029;28;21059;-77
2023/09/23 03:25:25;;;;;;;1.43;1.10;;;13.10;99.90;;;;;;5065011;28;20448;-79
2023/09/23 03:27:55;;;;;;;3.67;2.00;;;13.20;99.90;;;;;;5065744;28;20460;-77
2023/09/23 03:30:23;;;;;;;3.17;2.00;;;13.20;99.90;;;;;;5070116;28;20460;-77
2023/09/23 03:32:50;;;;;;;2.50;2.10;;;13.20;99.90;;;;;;5061184;28;20465;-77
2023/09/23 03:35:24;;;;;;;3.90;2.13;;;13.20;99.90;;;;;;5060505;28;20985;-81
2023/09/23 03:37:53;;;;;;;2.63;2.17;;;13.20;99.90;;;;;;5060201;28;20470;-77
2023/09/23 03:40:24;;;;;;;3.60;2.20;;;13.20;99.90;;;;;;5070771;28;20976;-75
2023/09/23 03:42:52;;;;;;;4.10;2.47;;;13.10;99.90;;;;;;5064676;28;22063;-77
2023/09/23 03:45:20;;;;;;;6.20;2.13;;;13.10;99.90;;;;;;5069113;28;20464;-76
2023/09/23 03:47:49;;;;;;;5.33;2.80;;;13.10;99.90;;;;;;5064623;28;20658;-79
2023/09/23 03:50:17;;;;;;;3.73;2.90;;;13.10;99.90;;;;;;5066317;28;20499;-77
2023/09/23 03:52:46;;;;;;;4.73;4.23;;;13.00;99.90;;;;;;5066666;28;20505;-75
2023/09/23 03:55:13;;;;;;;7.03;5.00;;;13.00;99.90;;;;;;5064758;28;20463;-80
2023/09/23 03:57:42;;;;;;;4.67;4.20;;;12.90;99.90;;;;;;5068168;28;20456;-78
2023/09/23 04:00:16;;;;;;;6.10;4.57;;;12.90;99.90;;;;;;5064328;28;20487;-77
2023/09/23 04:02:47;;;;;;;6.13;5.57;;;12.90;99.90;;;;;;5067900;28;20455;-76
2023/09/23 04:05:15;;;;;;;5.80;3.43;;;12.80;99.90;;;;;;5057157;28;20479;-76
2023/09/23 04:07:49;;;;;;;6.00;4.90;;;12.80;99.90;;;;;;5067359;28;20507;-80
2023/09/23 04:10:23;;;;;;;6.30;4.90;;;12.70;99.90;;;;;;5066014;28;20455;-77
2023/09/23 04:12:51;;;;;;;10.83;5.03;;;12.70;99.90;;;;;;5064137;28;20601;-76
2023/09/23 04:15:19;;;;;;;7.47;5.30;;;12.70;99.90;;;;;;5069029;28;21022;-79
2023/09/23 04:17:47;;;;;;;8.20;7.40;;;12.70;99.90;;;;;;5069109;28;20472;-81
2023/09/23 04:20:18;;;;;;;7.87;5.63;;;12.60;99.90;;;;;;5069822;28;20484;-78
2023/09/23 04:22:52;;;;;;;7.17;6.47;;;12.60;99.90;;;;;;5071110;28;20455;-76
2023/09/23 04:25:21;;;;;;;11.57;8.57;;;12.60;99.90;;;;;;5062412;28;20470;-76
2023/09/23 04:27:52;;;;;;;9.40;6.27;;;12.60;99.90;;;;;;5063237;28;20467;-77
2023/09/23 04:30:20;;;;;;;9.43;6.77;;;12.60;99.90;;;;;;5067755;28;20463;-77
2023/09/23 04:32:47;;;;;;;11.03;7.70;;;12.60;99.90;;;;;;5067641;28;20537;-80
2023/09/23 04:35:17;;;;;;;10.63;8.63;;;12.60;99.90;;;;;;5066665;28;20452;-78
2023/09/23 04:37:45;;;;;;;8.63;5.90;;;12.50;99.90;;;;;;5067121;28;20981;-74
2023/09/23 04:40:18;;;;;;;11.00;7.03;;;12.50;99.90;;;;;;5066693;28;21063;-77
2023/09/23 04:42:48;;;;;;;10.67;7.20;;;12.50;99.90;;;;;;5070563;28;20460;-77
2023/09/23 04:45:17;;;;;;;7.67;5.90;;;12.50;99.90;;;;;;5059859;28;20802;-78
2023/09/23 04:47:50;;;;;;;9.17;6.37;;;12.50;99.90;;;;;;5065225;28;20458;-77
2023/09/23 04:50:19;;;;;;;12.07;6.63;;;12.50;99.90;;;;;;5061889;28;20933;-77
2023/09/23 04:52:46;;;;;;;8.80;7.90;;;12.50;99.90;;;;;;5066152;28;20491;-78
2023/09/23 04:55:15;;;;;;;9.70;6.40;;;12.50;99.90;;;;;;5060593;28;20462;-76
2023/09/23 04:57:43;;;;;;;11.80;7.63;;;12.50;99.90;;;;;;5060333;28;20805;-77
2023/09/23 05:00:14;;;;;;;27.63;8.57;;;12.50;99.90;;;;;;5061133;28;21032;-77
2023/09/23 05:02:42;;;;;;;10.07;7.93;;;12.60;99.90;;;;;;5056518;28;20455;-77
2023/09/23 05:05:11;;;;;;;10.57;7.00;;;12.60;99.90;;;;;;5063020;28;20547;-80
2023/09/23 05:07:38;;;;;;;12.63;8.27;;;12.60;99.90;;;;;;5066676;28;21090;-74
2023/09/23 05:10:09;;;;;;;8.10;7.30;;;12.60;99.90;;;;;;5055495;28;20531;-74
2023/09/23 05:12:37;;;;;;;8.03;6.10;;;12.50;99.90;;;;;;5062650;28;20447;-74
2023/09/23 05:15:05;;;;;;;7.80;5.47;;;12.50;99.90;;;;;;5055279;28;20572;-74
2023/09/23 05:17:32;;;;;;;6.80;5.60;;;12.60;99.90;;;;;;5057296;28;20451;-74
2023/09/23 05:19:59;;;;;;;5.10;3.90;;;12.50;99.90;;;;;;5055099;28;20491;-78
2023/09/23 05:22:27;;;;;;;7.90;4.90;;;12.60;99.90;;;;;;5059118;28;20492;-75
2023/09/23 05:24:57;;;;;;;5.30;4.10;;;12.50;99.90;;;;;;5063517;28;20459;-76
2023/09/23 05:27:24;;;;;;;4.20;3.80;;;12.50;99.90;;;;;;5059065;28;20455;-77
2023/09/23 05:29:54;;;;;;;5.83;3.23;;;12.50;99.90;;;;;;5056770;28;20462;-74
2023/09/23 05:32:21;;;;;;;3.50;2.20;;;12.60;99.90;;;;;;5062757;28;20463;-74
2023/09/23 05:34:51;;;;;;;2.23;2.00;;;12.60;99.90;;;;;;5065516;28;20965;-75
2023/09/23 05:37:18;;;;;;;11.00;1.90;;;12.60;99.90;;;;;;5061947;28;20472;-79
2023/09/23 05:39:45;;;;;;;4.70;1.80;;;12.60;99.90;;;;;;5060667;28;20526;-79
2023/09/23 05:42:15;;;;;;;1.20;1.10;;;12.60;99.90;;;;;;5056198;28;20557;-75
2023/09/23 05:44:43;;;;;;;3.20;1.73;;;12.70;99.90;;;;;;5064509;28;20438;-75
2023/09/23 05:47:12;;;;;;;2.97;0.93;;;12.70;99.90;;;;;;5062845;28;20451;-83
2023/09/23 05:49:39;;;;;;;1.50;0.97;;;12.70;99.90;;;;;;5065794;28;20458;-84
2023/09/23 05:52:06;;;;;;;2.40;1.10;;;12.70;99.90;;;;;;5063199;28;20543;-80
2023/09/23 05:54:33;;;;;;;1.00;0.70;;;12.80;99.90;;;;;;5064083;28;20848;-80
2023/09/23 05:57:00;;;;;;;1.07;0.70;;;12.80;99.90;;;;;;5060711;28;20455;-78
2023/09/23 05:59:27;;;;;;;0.63;0.50;;;12.90;99.90;;;;;;5056014;28;20491;-80
2023/09/23 06:01:54;;;;;;;1.00;0.60;;;12.90;99.90;;;;;;5055127;28;20451;-76
2023/09/23 06:04:22;;;;;;;0.67;0.67;;;12.90;99.90;;;;;;5062542;28;20528;-78
2023/09/23 06:06:50;;;;;;;1.33;0.70;;;12.90;99.90;;;;;;5059034;28;20487;-78
2023/09/23 06:09:17;;;;;;;2.93;1.03;;;13.00;99.90;;;;;;5065937;28;20453;-80
2023/09/23 06:11:44;;;;;;;0.67;0.40;;;13.00;99.90;;;;;;5065059;28;20526;-81
2023/09/23 06:14:11;;;;;;;0.73;0.50;;;13.00;99.90;;;;;;5061827;28;20538;-80
2023/09/23 06:16:38;;;;;;;0.80;0.60;;;13.00;99.90;;;;;;5061636;28;20467;-80
2023/09/23 06:19:05;;;;;;;1.20;0.70;;;13.00;99.90;;;;;;5061340;28;20439;-80
2023/09/23 06:21:34;;;;;;;1.30;1.20;;;13.10;99.90;;;;;;5055491;28;20470;-80
2023/09/23 06:24:01;;;;;;;0.70;0.50;;;13.20;99.90;;;;;;5065422;28;20440;-80
2023/09/23 06:26:27;;;;;;;0.60;0.50;;;13.20;99.90;;;;;;5063067;28;20436;-80
2023/09/23 06:28:54;;;;;;;0.60;0.60;;;13.20;99.90;;;;;;5054171;28;20522;-80
2023/09/23 06:31:21;;;;;;;0.63;0.47;;;13.20;99.90;;;;;;5056674;28;21019;-80
2023/09/23 06:33:48;;;;;;;0.70;0.50;;;13.20;99.90;;;;;;5063600;28;20436;-81
2023/09/23 06:36:15;;;;;;;0.70;0.50;;;13.20;99.90;;;;;;5058081;28;20472;-82
2023/09/23 06:38:43;;;;;;;0.50;0.50;;;13.30;99.90;;;;;;5060506;28;20526;-83
2023/09/23 06:41:09;;;;;;;1.20;0.50;;;13.30;99.90;;;;;;5062841;28;20549;-82
2023/09/23 06:43:36;;;;;;;1.13;0.50;;;13.40;99.90;;;;;;5062391;28;20455;-80
2023/09/23 06:46:03;;;;;;;0.70;0.70;;;13.40;99.90;;;;;;5062527;28;20827;-80
2023/09/23 06:48:31;;;;;;;1.33;0.43;;;13.40;99.90;;;;;;5061630;28;20447;-80
2023/09/23 06:50:59;;;;;;;0.97;0.50;;;13.50;99.90;;;;;;5067359;28;21065;-80
2023/09/23 06:53:26;;;;;;;0.70;0.70;;;13.60;99.90;;;;;;5069816;28;20458;-80
2023/09/23 06:55:55;;;;;;;1.53;0.73;;;13.60;99.90;;;;;;5071670;28;20442;-80
2023/09/23 06:58:22;;;;;;;0.80;0.50;;;13.70;99.90;;;;;;5074722;28;20504;-80
2023/09/23 07:00:49;;;;;;;0.60;0.40;;;13.60;99.90;;;;;;5080080;28;20539;-80
2023/09/23 07:03:16;;;;;;;0.60;0.60;;;13.50;99.90;;;;;;5081398;28;20471;-81
2023/09/23 07:05:44;;;;;;;0.97;0.50;;;13.50;99.90;;;;;;5069180;28;20467;-81
2023/09/23 07:08:11;;;;;;;3.67;0.57;;;13.50;99.90;;;;;;5067738;28;20451;-80
2023/09/23 07:10:39;;;;;;;1.87;0.60;;;13.50;99.90;;;;;;5068398;28;20443;-79
2023/09/23 07:13:08;;;;;;;0.73;0.60;;;13.50;99.90;;;;;;5067809;28;20474;-80
2023/09/23 07:15:37;;;;;;;1.47;0.70;;;13.60;99.90;;;;;;5068193;28;20529;-80
2023/09/23 07:18:05;;;;;;;0.70;0.70;;;13.60;99.90;;;;;;5063558;28;20555;-81
2023/09/23 07:20:32;;;;;;;0.63;0.60;;;13.60;99.90;;;;;;5058407;28;20488;-80
2023/09/23 07:22:59;;;;;;;2.60;0.50;;;13.60;99.90;;;;;;5064492;28;20568;-81
2023/09/23 07:25:26;;;;;;;1.20;0.60;;;13.60;99.90;;;;;;5067268;28;20927;-80
2023/09/23 07:27:53;;;;;;;0.70;0.60;;;13.60;99.90;;;;;;5067703;28;20471;-81
2023/09/23 07:30:22;;;;;;;0.87;0.60;;;13.70;99.90;;;;;;5066941;28;20461;-79
2023/09/23 07:32:49;;;;;;;1.13;0.60;;;13.80;99.90;;;;;;5061354;28;20943;-80
2023/09/23 07:35:17;;;;;;;0.70;0.60;;;13.70;99.90;;;;;;5066531;28;20467;-81
2023/09/23 07:37:44;;;;;;;0.80;0.70;;;13.80;99.90;;;;;;5060160;28;20507;-81
2023/09/23 07:40:12;;;;;;;1.23;0.50;;;13.70;99.90;;;;;;5059907;28;20490;-80
2023/09/23 07:42:39;;;;;;;0.90;0.60;;;13.80;99.90;;;;;;5059621;28;20864;-81
2023/09/23 07:45:08;;;;;;;2.53;1.03;;;13.90;99.90;;;;;;5053124;28;20870;-81
2023/09/23 07:47:37;;;;;;;0.80;0.80;;;13.80;99.90;;;;;;5063090;28;20543;-80
2023/09/23 07:50:04;;;;;;;1.87;0.80;;;13.90;99.90;;;;;;5064998;28;20512;-81
2023/09/23 07:52:34;;;;;;;1.47;1.20;;;13.90;99.90;;;;;;5069439;28;20451;-82
2023/09/23 07:55:01;;;;;;;1.57;1.20;;;13.90;99.90;;;;;;5062701;28;20562;-82
2023/09/23 07:57:28;;;;;;;0.87;0.60;;;13.80;99.90;;;;;;5068492;28;20970;-80
2023/09/23 07:59:55;;;;;;;2.90;1.10;;;13.80;99.90;;;;;;5067594;28;20483;-81
2023/09/23 08:02:22;;;;;;;1.00;0.90;;;13.80;99.90;;;;;;5067205;28;20502;-80
2023/09/23 08:04:51;;;;;;;1.07;0.87;;;13.80;99.90;;;;;;5060392;28;20560;-80
2023/09/23 08:07:18;;;;;;;0.93;0.73;;;13.80;99.90;;;;;;5066063;28;20504;-82
2023/09/23 08:09:45;;;;;;;1.50;1.27;;;13.70;99.90;;;;;;5067678;28;20512;-81
2023/09/23 08:12:12;;;;;;;1.80;1.33;;;13.70;99.90;;;;;;5065081;28;21016;-81
2023/09/23 08:14:39;;;;;;;1.53;1.10;;;13.70;99.90;;;;;;5064479;28;20471;-81
2023/09/23 08:17:06;;;;;;;2.90;1.53;;;13.70;99.90;;;;;;5067911;28;20522;-80
2023/09/23 08:19:33;;;;;;;1.23;1.10;;;13.50;99.90;;;;;;5068471;28;20996;-80
2023/09/23 08:22:01;;;;;;;1.77;1.37;;;13.50;99.90;;;;;;5065011;28;21220;-80
2023/09/23 08:24:28;;;;;;;2.27;1.97;;;13.60;99.90;;;;;;5066368;28;20512;-84
2023/09/23 08:26:56;;;;;;;2.67;1.30;;;13.50;99.90;;;;;;5062399;28;20455;-80
2023/09/23 08:29:24;;;;;;;4.20;1.40;;;13.50;99.90;;;;;;5064911;28;20502;-80
2023/09/23 08:31:51;;;;;;;1.57;1.47;;;13.50;99.90;;;;;;5069283;28;20453;-80
2023/09/23 08:34:18;;;;;;;1.47;1.20;;;13.50;99.90;;;;;;5071012;28;20525;-80
2023/09/23 08:36:46;;;;;;;2.33;2.07;;;13.50;99.90;;;;;;5061573;28;20460;-81
2023/09/23 08:39:16;;;;;;;3.87;1.67;;;13.50;99.90;;;;;;5060101;28;20512;-80
2023/09/23 08:41:51;;;;;;;2.10;1.63;;;13.60;99.90;;;;;;5066386;28;20535;-81
2023/09/23 08:44:21;;;;;;;1.73;1.63;;;13.50;99.90;;;;;;5063725;28;21218;-81
2023/09/23 08:46:51;;;;;;;2.87;1.80;;;13.60;99.90;;;;;;5061871;28;20544;-80
2023/09/23 08:49:21;;;;;;;1.90;1.80;;;13.60;99.90;;;;;;5066693;28;20497;-82
2023/09/23 08:51:50;;;;;;;2.27;2.07;;;13.70;99.90;;;;;;5065062;28;20472;-81
2023/09/23 08:54:22;;;;;;;2.67;2.47;;;13.60;99.90;;;;;;5067395;28;20444;-81
2023/09/23 08:56:50;;;;;;;3.17;2.77;;;13.60;99.90;;;;;;5065110;28;20574;-81
2023/09/23 08:59:17;;;;;;;2.77;2.00;;;13.60;99.90;;;;;;5066935;28;20457;-81
2023/09/23 09:01:45;;;;;;;3.63;3.33;;;13.70;99.90;;;;;;5066430;28;20491;-83
2023/09/23 09:04:14;;;;;;;2.93;2.63;;;13.70;99.90;;;;;;5061388;28;20503;-80
2023/09/23 09:06:49;;;;;;;3.27;2.97;;;13.80;99.90;;;;;;5065769;28;20456;-82
2023/09/23 09:09:18;;;;;;;2.70;2.50;;;13.90;99.90;;;;;;5059929;28;20523;-80
2023/09/23 09:11:46;;;;;;;3.00;2.77;;;14.00;99.90;;;;;;5057489;28;20510;-81
2023/09/23 09:14:14;;;;;;;4.20;3.00;;;14.00;99.90;;;;;;5060207;28;20959;-80
2023/09/23 09:16:41;;;;;;;4.37;3.97;;;14.00;99.90;;;;;;5059015;28;20943;-80
2023/09/23 09:19:08;;;;;;;3.40;3.10;;;14.10;99.90;;;;;;5054198;28;20441;-80
2023/09/23 09:21:36;;;;;;;3.50;3.20;;;14.10;99.90;;;;;;5057320;28;20472;-82
2023/09/23 09:24:04;;;;;;;2.47;2.20;;;14.10;99.90;;;;;;5062560;28;20513;-80
2023/09/23 09:26:32;;;;;;;4.63;2.90;;;14.00;99.90;;;;;;5065813;28;20517;-80
2023/09/23 09:28:59;;;;;;;4.77;3.40;;;14.10;99.90;;;;;;5056311;28;20945;-82
2023/09/23 09:31:33;;;;;;;2.57;2.40;;;14.10;99.90;;;;;;5058583;28;20475;-80
2023/09/23 09:34:05;;;;;;;4.23;3.83;;;14.10;99.90;;;;;;5065421;28;20535;-80
2023/09/23 09:36:34;;;;;;;3.23;2.93;;;14.00;99.90;;;;;;5055319;28;20546;-81
2023/09/23 09:39:04;;;;;;;2.93;2.73;;;13.90;99.90;;;;;;5058399;28;20446;-82
2023/09/23 09:41:51;;;;;;;2.60;2.40;;;14.10;99.90;;;;;;5065173;28;20476;-81
2023/09/23 09:44:22;;;;;;;2.50;2.30;;;14.00;99.90;;;;;;5062916;28;20516;-80
2023/09/23 09:46:50;;;;;;;3.93;3.63;;;14.00;99.90;;;;;;5062847;28;20481;-81
2023/09/23 09:49:18;;;;;;;3.47;3.20;;;14.10;99.90;;;;;;5067026;28;20460;-79
2023/09/23 09:51:48;;;;;;;2.47;2.27;;;14.10;99.90;;;;;;5066695;28;20491;-80
2023/09/23 09:54:18;;;;;;;2.07;1.97;;;14.00;99.90;;;;;;5067328;28;20485;-79
2023/09/23 09:56:48;;;;;;;4.10;2.23;;;14.00;99.90;;;;;;5080369;28;20451;-82
2023/09/23 09:59:25;;;;;;;1.70;1.60;;;14.00;99.90;;;;;;5067100;28;20454;-82
2023/09/23 10:01:53;;;;;;;2.53;2.33;;;14.20;99.90;;;;;;5070187;28;20521;-79
2023/09/23 10:04:20;;;;;;;2.07;1.83;;;14.10;99.90;;;;;;5069095;28;20542;-80
2023/09/23 10:06:54;;;;;;;2.30;2.20;;;14.10;99.90;;;;;;5066760;28;20443;-82
2023/09/23 10:09:27;;;;;;;4.10;2.40;;;14.10;99.90;;;;;;5066308;28;20616;-82
2023/09/23 10:11:58;;;;;;;1.83;1.73;;;14.00;99.90;;;;;;5060904;28;20498;-80
2023/09/23 10:14:26;;;;;;;2.33;2.13;;;13.90;99.90;;;;;;5061511;28;20464;-79
2023/09/23 10:16:59;;;;;;;1.50;1.10;;;13.80;99.90;;;;;;5056714;28;21196;-80
2023/09/23 10:19:31;;;;;;;1.57;1.47;;;13.60;99.90;;;;;;5059871;28;20559;-80
2023/09/23 10:22:17;;;;;;;1.20;1.10;;;13.60;99.90;;;;;;5054459;28;20494;-81
2023/09/23 10:24:44;;;;;;;1.40;1.23;;;13.70;99.90;;;;;;5065462;28;20497;-80
2023/09/23 10:27:13;;;;;;;0.80;0.80;;;13.90;99.90;;;;;;5059857;28;20451;-79
2023/09/23 10:29:45;;;;;;;1.53;0.77;;;13.80;99.90;;;;;;5055539;28;20868;-82
2023/09/23 10:32:14;;;;;;;0.80;0.60;;;13.70;99.90;;;;;;5065226;28;20490;-79
2023/09/23 10:34:52;;;;;;;0.90;0.60;;;13.70;99.90;;;;;;5061802;28;20472;-79
2023/09/23 10:37:29;;;;;;;0.60;0.47;;;13.70;99.90;;;;;;5066181;28;20455;-84
2023/09/23 10:40:00;;;;;;;0.60;0.50;;;13.80;99.90;;;;;;5061685;28;20483;-84
2023/09/23 10:42:28;;;;;;;1.47;0.80;;;13.80;99.90;;;;;;5061649;28;20480;-81
2023/09/23 10:44:59;;;;;;;0.60;0.40;;;13.80;99.90;;;;;;5061906;28;20479;-82
2023/09/23 10:47:27;;;;;;;2.00;0.70;;;13.80;99.90;;;;;;5064554;28;20450;-82
2023/09/23 10:49:54;;;;;;;1.50;0.40;;;13.80;99.90;;;;;;5063348;28;20507;-81
2023/09/23 10:52:21;;;;;;;0.50;0.40;;;13.70;99.90;;;;;;5065360;28;20459;-81
2023/09/23 10:54:49;;;;;;;0.50;0.40;;;13.70;99.90;;;;;;5065982;28;20467;-81
2023/09/23 10:57:16;;;;;;;0.60;0.53;;;13.50;99.90;;;;;;5061180;28;20853;-82
2023/09/23 10:59:44;;;;;;;0.83;0.83;;;13.40;99.90;;;;;;5066071;28;20475;-84
2023/09/23 11:02:11;;;;;;;1.43;0.57;;;13.30;99.90;;;;;;5064977;28;20518;-82
2023/09/23 11:04:38;;;;;;;0.60;0.60;;;13.20;99.90;;;;;;5059408;28;21076;-83
2023/09/23 11:07:07;;;;;;;0.50;0.40;;;13.10;99.90;;;;;;5063920;28;20451;-83
2023/09/23 11:09:36;;;;;;;1.77;0.50;;;13.20;99.90;;;;;;5065591;28;20523;-82
2023/09/23 11:12:12;;;;;;;0.70;0.60;;;13.20;99.90;;;;;;5064512;28;21273;-81
2023/09/23 11:14:42;;;;;;;0.67;0.67;;;13.30;99.90;;;;;;5063199;28;20446;-82
2023/09/23 11:17:20;;;;;;;1.10;0.60;;;13.40;99.90;;;;;;5055623;28;20459;-84
2023/09/23 11:19:54;;;;;;;1.30;1.20;;;13.50;99.90;;;;;;5066707;28;20530;-81
2023/09/23 11:22:25;;;;;;;1.33;0.70;;;13.70;99.90;;;;;;5068015;28;20502;-83
2023/09/23 11:24:52;;;;;;;2.83;0.80;;;14.00;99.90;;;;;;5082975;28;20468;-83
2023/09/23 11:27:19;;;;;;;1.03;0.60;;;14.10;99.90;;;;;;5078777;28;20910;-81
2023/09/23 11:29:46;;;;;;;0.80;0.80;;;14.10;99.90;;;;;;5072517;28;20863;-82
2023/09/23 11:32:15;;;;;;;0.80;0.80;;;14.30;99.90;;;;;;5066195;28;20458;-81
2023/09/23 11:34:42;;;;;;;0.87;0.80;;;14.30;99.90;;;;;;5064296;28;20474;-84
2023/09/23 11:37:09;;;;;;;1.13;0.80;;;14.50;99.90;;;;;;5058264;28;20533;-84
2023/09/23 11:39:37;;;;;;;1.30;0.60;;;14.70;99.90;;;;;;5065037;28;20472;-82
2023/09/23 11:42:05;;;;;;;1.70;0.70;;;14.90;99.90;;;;;;5066959;28;20492;-82
2023/09/23 11:44:34;;;;;;;0.70;0.70;;;14.90;99.90;;;;;;5061152;28;21179;-81
2023/09/23 11:47:01;;;;;;;0.97;0.80;;;14.90;99.90;;;;;;5057807;28;20620;-82
2023/09/23 11:49:29;;;;;;;0.60;0.50;;;14.90;99.90;;;;;;5066763;28;20754;-82
2023/09/23 11:51:56;;;;;;;2.20;0.80;;;15.00;99.90;;;;;;5063689;28;20507;-82
2023/09/23 11:54:24;;;;;;;1.03;0.93;;;15.10;99.90;;;;;;5059094;28;20461;-81
2023/09/23 11:56:51;;;;;;;0.80;0.70;;;15.10;99.90;;;;;;5061247;28;20479;-81
2023/09/23 11:59:20;;;;;;;0.93;0.70;;;15.10;99.90;;;;;;5071950;28;20473;-81
2023/09/23 12:01:48;;;;;;;0.63;0.50;;;15.20;99.90;;;;;;5071362;28;21022;-82
2023/09/23 12:04:15;;;;;;;0.80;0.50;;;15.30;99.90;;;;;;5060673;28;20460;-83
2023/09/23 12:06:45;;;;;;;0.67;0.50;;;15.40;99.90;;;;;;5060900;28;20503;-81
2023/09/23 12:09:12;;;;;;;2.03;0.70;;;15.50;99.90;;;;;;5062196;28;20457;-81
2023/09/23 12:11:39;;;;;;;0.90;0.70;;;15.50;99.90;;;;;;5066088;28;20494;-82
2023/09/23 12:14:08;;;;;;;0.70;0.60;;;15.50;99.90;;;;;;5063075;28;20467;-82
2023/09/23 12:16:36;;;;;;;0.97;0.60;;;15.70;99.90;;;;;;5062198;28;20463;-82
2023/09/23 12:19:04;;;;;;;2.13;0.50;;;15.80;99.90;;;;;;5063824;28;20562;-84
2023/09/23 12:21:31;;;;;;;0.50;0.40;;;15.60;99.90;;;;;;5066195;28;20471;-82
2023/09/23 12:24:00;;;;;;;0.90;0.80;;;15.50;99.90;;;;;;5063874;28;20467;-81
2023/09/23 12:26:28;;;;;;;0.70;0.60;;;15.60;99.90;;;;;;5064206;28;20470;-82
2023/09/23 12:28:55;;;;;;;0.70;0.50;;;15.50;99.90;;;;;;5064001;28;20462;-82
2023/09/23 12:31:23;;;;;;;3.90;0.43;;;15.70;99.90;;;;;;5070508;28;20463;-81
2023/09/23 12:33:50;;;;;;;0.70;0.50;;;15.80;99.90;;;;;;5066517;28;20548;-81
2023/09/23 12:36:17;;;;;;;0.60;0.50;;;16.00;99.90;;;;;;5068198;28;20557;-81
2023/09/23 12:38:44;;;;;;;0.50;0.40;;;16.00;99.90;;;;;;5067679;28;20529;-84
2023/09/23 12:41:14;;;;;;;0.67;0.40;;;15.70;99.70;;;;;;5066234;28;20525;-83
2023/09/23 12:43:41;;;;;;;0.53;0.50;;;15.60;99.90;;;;;;5068308;28;20466;-82
2023/09/23 12:46:09;;;;;;;1.47;0.50;;;15.70;99.90;;;;;;5069006;28;20969;-81
2023/09/23 12:48:36;;;;;;;0.70;0.60;;;15.70;99.90;;;;;;5087147;28;20431;-81
2023/09/23 12:51:03;;;;;;;1.67;0.40;;;15.80;99.90;;;;;;5081458;28;20560;-82
2023/09/23 12:53:30;;;;;;;1.07;0.97;;;15.80;99.90;;;;;;5077029;28;20463;-81